createdAt,value
2015-08-07T00:00:07.089Z,79.91
2015-08-07T00:00:18.747Z,80.01
2015-08-07T00:00:31.122Z,80.2
2015-08-07T00:00:43.497Z,80.2
2015-08-07T00:00:55.872Z,79.91
2015-08-07T00:01:08.247Z,80.2
2015-08-07T00:01:20.624Z,80.2
2015-08-07T00:01:32.999Z,80.11
2015-08-07T00:01:45.374Z,80.01
2015-08-07T00:01:57.749Z,80.39
2015-08-07T00:02:10.124Z,80.39
2015-08-07T00:02:22.517Z,80.3
2015-08-07T00:02:34.892Z,80.3
2015-08-07T00:02:47.283Z,79.91
2015-08-07T00:02:59.673Z,80.11
2015-08-07T00:03:12.064Z,80.01
2015-08-07T00:03:24.457Z,80.2
2015-08-07T00:03:36.863Z,80.2
2015-08-07T00:03:49.269Z,80.3
2015-08-07T00:04:01.660Z,80.11
2015-08-07T00:04:14.082Z,80.2
2015-08-07T00:04:26.458Z,80.2
2015-08-07T00:04:38.817Z,80.01
2015-08-07T00:04:51.208Z,80.2
2015-08-07T00:05:03.583Z,79.91
2015-08-07T00:05:15.958Z,80.68
2015-08-07T00:05:28.335Z,80.58
2015-08-07T00:05:40.710Z,80.58
2015-08-07T00:05:53.085Z,80.39
2015-08-07T00:06:05.475Z,80.2
2015-08-07T00:06:17.850Z,80.11
2015-08-07T00:06:30.244Z,80.2
2015-08-07T00:06:42.603Z,80.2
2015-08-07T00:06:54.994Z,80.2
2015-08-07T00:07:07.369Z,80.3
2015-08-07T00:07:19.744Z,80.2
2015-08-07T00:07:32.105Z,79.91
2015-08-07T00:07:44.355Z,80.39
2015-08-07T00:07:56.730Z,80.39
2015-08-07T00:08:09.105Z,80.39
2015-08-07T00:08:21.496Z,80.39
2015-08-07T00:08:33.903Z,80.3
2015-08-07T00:08:46.325Z,79.91
2015-08-07T00:08:58.731Z,80.2
2015-08-07T00:09:11.137Z,80.2
2015-08-07T00:09:23.544Z,80.11
2015-08-07T00:09:35.969Z,80.49
2015-08-07T00:09:48.375Z,80.77
2015-08-07T00:10:00.734Z,80.68
2015-08-07T00:10:13.109Z,80.68
2015-08-07T00:10:25.484Z,81.15
2015-08-07T00:10:37.861Z,80.96
2015-08-07T00:10:50.221Z,80.68
2015-08-07T00:11:02.611Z,80.77
2015-08-07T00:11:14.986Z,80.96
2015-08-07T00:11:27.361Z,80.87
2015-08-07T00:11:39.737Z,80.87
2015-08-07T00:11:52.097Z,80.96
2015-08-07T00:12:04.472Z,80.87
2015-08-07T00:12:16.847Z,81.06
2015-08-07T00:12:29.222Z,80.87
2015-08-07T00:12:41.600Z,80.87
2015-08-07T00:12:53.975Z,80.87
2015-08-07T00:13:06.350Z,80.96
2015-08-07T00:13:18.725Z,80.77
2015-08-07T00:13:31.115Z,80.68
2015-08-07T00:13:43.491Z,80.68
2015-08-07T00:13:55.882Z,81.06
2015-08-07T00:14:08.272Z,80.96
2015-08-07T00:14:19.960Z,80.58
2015-08-07T00:14:32.366Z,80.68
2015-08-07T00:14:44.759Z,80.87
2015-08-07T00:14:57.165Z,80.77
2015-08-07T00:15:09.571Z,80.58
2015-08-07T00:15:21.978Z,80.96
2015-08-07T00:15:34.399Z,80.87
2015-08-07T00:15:46.761Z,80.96
2015-08-07T00:15:59.136Z,80.39
2015-08-07T00:16:11.511Z,80.49
2015-08-07T00:16:23.886Z,80.49
2015-08-07T00:16:36.261Z,80.68
2015-08-07T00:16:48.653Z,80.58
2015-08-07T00:17:01.028Z,80.68
2015-08-07T00:17:12.685Z,80.49
2015-08-07T00:17:25.060Z,80.58
2015-08-07T00:17:37.435Z,80.68
2015-08-07T00:17:49.812Z,80.39
2015-08-07T00:18:02.202Z,80.49
2015-08-07T00:18:14.562Z,80.68
2015-08-07T00:18:26.952Z,80.68
2015-08-07T00:18:39.327Z,80.77
2015-08-07T00:18:51.704Z,80.68
2015-08-07T00:19:04.079Z,80.49
2015-08-07T00:19:16.470Z,80.39
2015-08-07T00:19:28.845Z,79.72
2015-08-07T00:19:41.222Z,80.11
2015-08-07T00:19:53.613Z,80.24
2015-08-07T00:20:06.034Z,80.01
2015-08-07T00:20:18.441Z,80.01
2015-08-07T00:20:30.831Z,80.01
2015-08-07T00:20:43.240Z,79.91
2015-08-07T00:20:55.661Z,80.11
2015-08-07T00:21:08.068Z,80.11
2015-08-07T00:21:20.458Z,80.11
2015-08-07T00:21:32.833Z,80.2
2015-08-07T00:21:44.507Z,80.01
2015-08-07T00:21:56.898Z,80.33
2015-08-07T00:22:09.273Z,80.01
2015-08-07T00:22:21.648Z,80.11
2015-08-07T00:22:34.023Z,79.82
2015-08-07T00:22:46.400Z,79.72
2015-08-07T00:22:58.775Z,79.77
2015-08-07T00:23:11.150Z,79.72
2015-08-07T00:23:23.525Z,79.57
2015-08-07T00:23:35.900Z,79.53
2015-08-07T00:23:48.261Z,79.67
2015-08-07T00:24:00.636Z,79.67
2015-08-07T00:24:13.011Z,79.53
2015-08-07T00:24:25.386Z,79.77
2015-08-07T00:24:37.761Z,79.77
2015-08-07T00:24:50.154Z,79.82
2015-08-07T00:25:02.529Z,79.67
2015-08-07T00:25:14.904Z,79.63
2015-08-07T00:25:27.294Z,79.63
2015-08-07T00:25:39.716Z,79.72
2015-08-07T00:25:52.125Z,79.63
2015-08-07T00:26:04.531Z,79.53
2015-08-07T00:26:16.921Z,79.86
2015-08-07T00:26:29.312Z,79.67
2015-08-07T00:26:41.703Z,79.48
2015-08-07T00:26:54.080Z,79.63
2015-08-07T00:27:06.455Z,79.48
2015-08-07T00:27:18.830Z,79.53
2015-08-07T00:27:31.205Z,79.63
2015-08-07T00:27:43.580Z,79.82
2015-08-07T00:27:55.957Z,79.77
2015-08-07T00:28:08.332Z,79.77
2015-08-07T00:28:20.722Z,79.35
2015-08-07T00:28:33.097Z,79.63
2015-08-07T00:28:45.457Z,79.72
2015-08-07T00:28:57.834Z,79.72
2015-08-07T00:29:10.209Z,79.63
2015-08-07T00:29:22.584Z,79.63
2015-08-07T00:29:34.959Z,79.77
2015-08-07T00:29:47.334Z,79.82
2015-08-07T00:29:59.725Z,79.72
2015-08-07T00:30:12.100Z,79.72
2015-08-07T00:30:24.475Z,79.63
2015-08-07T00:30:36.850Z,79.67
2015-08-07T00:30:49.241Z,79.67
2015-08-07T00:31:01.619Z,79.67
2015-08-07T00:31:14.041Z,79.86
2015-08-07T00:31:26.447Z,79.48
2015-08-07T00:31:38.838Z,79.63
2015-08-07T00:31:51.244Z,79.86
2015-08-07T00:32:03.651Z,79.63
2015-08-07T00:32:16.057Z,79.63
2015-08-07T00:32:28.464Z,79.67
2015-08-07T00:32:40.839Z,79.44
2015-08-07T00:32:53.214Z,79.63
2015-08-07T00:33:05.592Z,79.77
2015-08-07T00:33:17.967Z,79.86
2015-08-07T00:33:30.342Z,79.48
2015-08-07T00:33:42.717Z,79.82
2015-08-07T00:33:55.092Z,79.44
2015-08-07T00:34:07.469Z,79.67
2015-08-07T00:34:19.844Z,79.63
2015-08-07T00:34:32.219Z,79.63
2015-08-07T00:34:44.594Z,79.67
2015-08-07T00:34:56.969Z,79.63
2015-08-07T00:35:09.361Z,79.63
2015-08-07T00:35:21.721Z,79.67
2015-08-07T00:35:34.096Z,79.67
2015-08-07T00:35:46.471Z,79.48
2015-08-07T00:35:58.846Z,79.63
2015-08-07T00:36:11.223Z,79.72
2015-08-07T00:36:23.613Z,79.53
2015-08-07T00:36:35.988Z,79.77
2015-08-07T00:36:48.410Z,79.63
2015-08-07T00:37:00.801Z,79.63
2015-08-07T00:37:13.193Z,79.63
2015-08-07T00:37:25.584Z,79.63
2015-08-07T00:37:37.990Z,79.63
2015-08-07T00:37:50.381Z,79.63
2015-08-07T00:38:02.803Z,79.53
2015-08-07T00:38:15.430Z,79.63
2015-08-07T00:38:27.805Z,79.63
2015-08-07T00:38:40.180Z,79.77
2015-08-07T00:38:52.539Z,79.63
2015-08-07T00:39:04.930Z,79.63
2015-08-07T00:39:17.290Z,79.72
2015-08-07T00:39:29.665Z,79.82
2015-08-07T00:39:42.056Z,79.72
2015-08-07T00:39:54.681Z,79.82
2015-08-07T00:40:07.073Z,79.53
2015-08-07T00:40:19.448Z,79.72
2015-08-07T00:40:31.823Z,79.72
2015-08-07T00:40:44.198Z,80.11
2015-08-07T00:40:56.573Z,79.91
2015-08-07T00:41:08.950Z,79.72
2015-08-07T00:41:21.325Z,80.3
2015-08-07T00:41:33.685Z,80.11
2015-08-07T00:41:46.091Z,80.2
2015-08-07T00:41:58.466Z,79.63
2015-08-07T00:42:10.843Z,80.3
2015-08-07T00:42:23.234Z,80.2
2015-08-07T00:42:35.656Z,79.91
2015-08-07T00:42:48.062Z,80.01
2015-08-07T00:43:00.468Z,80.01
2015-08-07T00:43:12.876Z,80.01
2015-08-07T00:43:25.283Z,80.01
2015-08-07T00:43:37.704Z,80.01
2015-08-07T00:43:50.064Z,80.2
2015-08-07T00:44:02.439Z,80.01
2015-08-07T00:44:14.816Z,80.2
2015-08-07T00:44:27.175Z,80.2
2015-08-07T00:44:39.550Z,80.2
2015-08-07T00:44:51.925Z,80.2
2015-08-07T00:45:04.300Z,80.2
2015-08-07T00:45:16.677Z,80.2
2015-08-07T00:45:28.349Z,80.2
2015-08-07T00:45:40.755Z,80.39
2015-08-07T00:45:53.130Z,80.11
2015-08-07T00:46:05.505Z,79.72
2015-08-07T00:46:17.867Z,80.2
2015-08-07T00:46:30.257Z,80.39
2015-08-07T00:46:42.632Z,80.39
2015-08-07T00:46:54.304Z,80.39
2015-08-07T00:47:06.679Z,80.3
2015-08-07T00:47:19.072Z,80.49
2015-08-07T00:47:31.462Z,80.3
2015-08-07T00:47:43.837Z,79.72
2015-08-07T00:47:56.228Z,80.49
2015-08-07T00:48:08.634Z,79.91
2015-08-07T00:48:20.339Z,80.49
2015-08-07T00:48:32.730Z,80.01
2015-08-07T00:48:45.136Z,79.91
2015-08-07T00:48:57.543Z,79.72
2015-08-07T00:49:09.949Z,80.39
2015-08-07T00:49:22.326Z,79.82
2015-08-07T00:49:34.701Z,80.3
2015-08-07T00:49:47.076Z,80.3
2015-08-07T00:49:59.435Z,80.39
2015-08-07T00:50:11.810Z,80.39
2015-08-07T00:50:24.172Z,80.11
2015-08-07T00:50:36.547Z,80.11
2015-08-07T00:50:48.906Z,80.2
2015-08-07T00:51:01.281Z,80.3
2015-08-07T00:51:13.672Z,79.91
2015-08-07T00:51:26.049Z,80.11
2015-08-07T00:51:38.408Z,79.91
2015-08-07T00:51:50.783Z,80.11
2015-08-07T00:52:03.158Z,80.2
2015-08-07T00:52:14.814Z,79.91
2015-08-07T00:52:27.191Z,80.11
2015-08-07T00:52:39.566Z,80.2
2015-08-07T00:52:51.941Z,80.2
2015-08-07T00:53:04.347Z,80.01
2015-08-07T00:53:16.738Z,80.2
2015-08-07T00:53:28.989Z,79.91
2015-08-07T00:53:41.395Z,79.91
2015-08-07T00:53:53.802Z,80.3
2015-08-07T00:54:05.489Z,80.2
2015-08-07T00:54:17.895Z,80.2
2015-08-07T00:54:30.289Z,80.2
2015-08-07T00:54:42.695Z,80.39
2015-08-07T00:54:55.086Z,80.3
2015-08-07T00:55:07.461Z,80.39
2015-08-07T00:55:19.836Z,80.49
2015-08-07T00:55:32.213Z,80.39
2015-08-07T00:55:44.588Z,80.49
2015-08-07T00:55:56.947Z,80.68
2015-08-07T00:56:09.322Z,80.68
2015-08-07T00:56:20.994Z,80.68
2015-08-07T00:56:33.355Z,80.77
2015-08-07T00:56:45.746Z,80.58
2015-08-07T00:56:58.121Z,80.68
2015-08-07T00:57:10.340Z,80.68
2015-08-07T00:57:22.715Z,80.58
2015-08-07T00:57:35.092Z,80.68
2015-08-07T00:57:47.467Z,80.58
2015-08-07T00:57:59.842Z,80.58
2015-08-07T00:58:12.217Z,80.77
2015-08-07T00:58:24.592Z,80.68
2015-08-07T00:58:36.984Z,80.68
2015-08-07T00:58:49.375Z,80.68
2015-08-07T00:59:01.594Z,80.39
2015-08-07T00:59:13.984Z,80.68
2015-08-07T00:59:26.422Z,80.49
2015-08-07T00:59:38.814Z,80.39
2015-08-07T00:59:51.204Z,80.49
2015-08-07T01:00:03.610Z,80.58
2015-08-07T01:00:16.017Z,80.58
2015-08-07T01:00:28.407Z,80.68
2015-08-07T01:00:40.785Z,80.68
2015-08-07T01:00:53.160Z,80.68
2015-08-07T01:01:04.832Z,80.49
2015-08-07T01:01:17.207Z,80.49
2015-08-07T01:01:29.598Z,80.58
2015-08-07T01:01:41.975Z,80.49
2015-08-07T01:01:54.350Z,80.3
2015-08-07T01:02:06.725Z,80.49
2015-08-07T01:02:19.115Z,80.58
2015-08-07T01:02:31.490Z,81.06
2015-08-07T01:02:43.866Z,81.06
2015-08-07T01:02:56.226Z,81.06
2015-08-07T01:03:08.601Z,80.96
2015-08-07T01:03:20.991Z,80.96
2015-08-07T01:03:33.366Z,80.87
2015-08-07T01:03:45.743Z,80.87
2015-08-07T01:03:58.118Z,80.87
2015-08-07T01:04:10.493Z,80.58
2015-08-07T01:04:22.868Z,80.77
2015-08-07T01:04:35.259Z,80.87
2015-08-07T01:04:47.652Z,80.68
2015-08-07T01:05:00.058Z,80.77
2015-08-07T01:05:11.745Z,80.87
2015-08-07T01:05:23.433Z,81.15
2015-08-07T01:05:35.839Z,80.77
2015-08-07T01:05:48.247Z,80.96
2015-08-07T01:06:00.638Z,81.15
2015-08-07T01:06:13.013Z,80.87
2015-08-07T01:06:25.388Z,80.96
2015-08-07T01:06:37.747Z,80.96
2015-08-07T01:06:50.124Z,80.77
2015-08-07T01:07:02.484Z,80.96
2015-08-07T01:07:14.859Z,80.87
2015-08-07T01:07:26.531Z,80.87
2015-08-07T01:07:38.890Z,80.87
2015-08-07T01:07:51.268Z,80.96
2015-08-07T01:08:03.643Z,80.96
2015-08-07T01:08:16.018Z,81.15
2015-08-07T01:08:28.393Z,81.25
2015-08-07T01:08:40.784Z,81.25
2015-08-07T01:08:53.144Z,80.87
2015-08-07T01:09:05.519Z,80.96
2015-08-07T01:09:17.894Z,81.06
2015-08-07T01:09:30.285Z,80.96
2015-08-07T01:09:42.660Z,80.96
2015-08-07T01:09:55.037Z,80.96
2015-08-07T01:10:07.412Z,81.15
2015-08-07T01:10:19.834Z,81.15
2015-08-07T01:10:32.240Z,80.96
2015-08-07T01:10:44.646Z,81.06
2015-08-07T01:10:57.054Z,81.25
2015-08-07T01:11:08.742Z,81.44
2015-08-07T01:11:21.148Z,81.35
2015-08-07T01:11:33.554Z,81.35
2015-08-07T01:11:45.961Z,81.35
2015-08-07T01:11:58.339Z,81.25
2015-08-07T01:12:10.729Z,81.25
2015-08-07T01:12:23.104Z,81.44
2015-08-07T01:12:35.479Z,81.92
2015-08-07T01:12:47.854Z,81.92
2015-08-07T01:13:00.231Z,81.92
2015-08-07T01:13:12.606Z,81.82
2015-08-07T01:13:24.981Z,81.82
2015-08-07T01:13:37.372Z,82.01
2015-08-07T01:13:49.747Z,81.92
2015-08-07T01:14:02.124Z,81.92
2015-08-07T01:14:14.499Z,81.73
2015-08-07T01:14:26.889Z,81.63
2015-08-07T01:14:39.264Z,81.73
2015-08-07T01:14:51.639Z,81.63
2015-08-07T01:15:04.015Z,81.63
2015-08-07T01:15:16.390Z,81.73
2015-08-07T01:15:28.781Z,82.01
2015-08-07T01:15:41.156Z,81.92
2015-08-07T01:15:53.547Z,81.73
2015-08-07T01:16:05.940Z,81.63
2015-08-07T01:16:18.347Z,82.4
2015-08-07T01:16:30.753Z,81.82
2015-08-07T01:16:43.143Z,81.82
2015-08-07T01:16:55.550Z,81.63
2015-08-07T01:17:07.957Z,81.73
2015-08-07T01:17:19.644Z,81.92
2015-08-07T01:17:32.019Z,81.73
2015-08-07T01:17:44.410Z,81.73
2015-08-07T01:17:56.785Z,81.73
2015-08-07T01:18:09.162Z,81.63
2015-08-07T01:18:21.537Z,82.11
2015-08-07T01:18:33.912Z,82.2
2015-08-07T01:18:46.287Z,82.4
2015-08-07T01:18:58.662Z,82.3
2015-08-07T01:19:11.039Z,82.2
2015-08-07T01:19:23.414Z,82.11
2015-08-07T01:19:35.789Z,82.2
2015-08-07T01:19:48.164Z,82.3
2015-08-07T01:20:00.539Z,82.2
2015-08-07T01:20:12.932Z,82.2
2015-08-07T01:20:25.307Z,82.2
2015-08-07T01:20:37.666Z,82.2
2015-08-07T01:20:50.041Z,82.3
2015-08-07T01:21:02.416Z,81.82
2015-08-07T01:21:14.793Z,81.63
2015-08-07T01:21:27.184Z,81.92
2015-08-07T01:21:39.559Z,81.92
2015-08-07T01:21:51.996Z,81.54
2015-08-07T01:22:03.684Z,81.63
2015-08-07T01:22:16.076Z,81.73
2015-08-07T01:22:28.483Z,81.82
2015-08-07T01:22:40.873Z,81.82
2015-08-07T01:22:53.279Z,82.01
2015-08-07T01:23:05.670Z,81.82
2015-08-07T01:23:18.047Z,81.92
2015-08-07T01:23:29.969Z,81.73
2015-08-07T01:23:42.344Z,81.82
2015-08-07T01:23:54.719Z,81.92
2015-08-07T01:24:07.110Z,81.73
2015-08-07T01:24:19.487Z,81.82
2015-08-07T01:24:31.862Z,81.63
2015-08-07T01:24:44.252Z,81.44
2015-08-07T01:24:56.627Z,81.92
2015-08-07T01:25:09.003Z,81.82
2015-08-07T01:25:21.378Z,81.82
2015-08-07T01:25:33.753Z,82.01
2015-08-07T01:25:46.128Z,81.92
2015-08-07T01:25:58.503Z,81.92
2015-08-07T01:26:10.880Z,81.92
2015-08-07T01:26:23.255Z,82.11
2015-08-07T01:26:35.630Z,81.82
2015-08-07T01:26:48.005Z,81.92
2015-08-07T01:27:00.380Z,81.73
2015-08-07T01:27:12.773Z,81.92
2015-08-07T01:27:25.163Z,81.44
2015-08-07T01:27:37.570Z,81.82
2015-08-07T01:27:49.976Z,81.54
2015-08-07T01:28:02.367Z,81.35
2015-08-07T01:28:14.057Z,81.25
2015-08-07T01:28:26.479Z,81.25
2015-08-07T01:28:38.901Z,81.35
2015-08-07T01:28:51.276Z,81.35
2015-08-07T01:29:03.666Z,81.35
2015-08-07T01:29:16.042Z,81.35
2015-08-07T01:29:28.417Z,81.54
2015-08-07T01:29:40.792Z,81.44
2015-08-07T01:29:53.167Z,81.35
2015-08-07T01:30:05.542Z,81.25
2015-08-07T01:30:17.919Z,81.25
2015-08-07T01:30:30.310Z,81.15
2015-08-07T01:30:42.685Z,80.87
2015-08-07T01:30:55.060Z,81.15
2015-08-07T01:31:07.451Z,81.15
2015-08-07T01:31:19.829Z,81.35
2015-08-07T01:31:31.501Z,80.87
2015-08-07T01:31:43.876Z,80.77
2015-08-07T01:31:56.251Z,80.77
2015-08-07T01:32:08.626Z,80.77
2015-08-07T01:32:21.002Z,80.87
2015-08-07T01:32:33.392Z,81.15
2015-08-07T01:32:45.767Z,80.96
2015-08-07T01:32:58.173Z,80.77
2015-08-07T01:33:10.580Z,80.77
2015-08-07T01:33:22.989Z,80.68
2015-08-07T01:33:35.395Z,80.87
2015-08-07T01:33:47.786Z,80.96
2015-08-07T01:34:00.208Z,80.96
2015-08-07T01:34:12.598Z,80.96
2015-08-07T01:34:24.991Z,80.96
2015-08-07T01:34:37.366Z,81.06
2015-08-07T01:34:49.741Z,80.49
2015-08-07T01:35:02.100Z,80.49
2015-08-07T01:35:14.475Z,80.49
2015-08-07T01:35:26.852Z,80.58
2015-08-07T01:35:39.227Z,80.68
2015-08-07T01:35:51.602Z,80.68
2015-08-07T01:36:03.962Z,80.49
2015-08-07T01:36:16.352Z,80.49
2015-08-07T01:36:28.729Z,80.39
2015-08-07T01:36:41.104Z,80.49
2015-08-07T01:36:53.479Z,80.49
2015-08-07T01:37:05.870Z,80.58
2015-08-07T01:37:18.261Z,80.58
2015-08-07T01:37:30.637Z,80.58
2015-08-07T01:37:43.012Z,80.49
2015-08-07T01:37:55.387Z,80.68
2015-08-07T01:38:07.793Z,80.49
2015-08-07T01:38:20.183Z,80.49
2015-08-07T01:38:32.560Z,80.68
2015-08-07T01:38:44.951Z,80.58
2015-08-07T01:38:57.373Z,80.68
2015-08-07T01:39:09.764Z,80.68
2015-08-07T01:39:22.170Z,80.39
2015-08-07T01:39:34.578Z,80.58
2015-08-07T01:39:46.984Z,80.49
2015-08-07T01:39:59.375Z,80.39
2015-08-07T01:40:11.734Z,80.58
2015-08-07T01:40:24.109Z,80.58
2015-08-07T01:40:36.471Z,80.58
2015-08-07T01:40:48.830Z,80.58
2015-08-07T01:41:01.205Z,80.49
2015-08-07T01:41:13.564Z,80.49
2015-08-07T01:41:25.955Z,80.39
2015-08-07T01:41:38.333Z,80.68
2015-08-07T01:41:50.739Z,80.49
2015-08-07T01:42:03.099Z,80.68
2015-08-07T01:42:15.474Z,80.58
2015-08-07T01:42:27.849Z,80.58
2015-08-07T01:42:40.225Z,80.49
2015-08-07T01:42:52.584Z,80.58
2015-08-07T01:43:04.240Z,80.39
2015-08-07T01:43:16.631Z,80.3
2015-08-07T01:43:28.990Z,80.58
2015-08-07T01:43:41.414Z,80.68
2015-08-07T01:43:53.789Z,80.87
2015-08-07T01:44:06.164Z,80.68
2015-08-07T01:44:18.555Z,80.77
2015-08-07T01:44:30.977Z,80.77
2015-08-07T01:44:43.369Z,80.68
2015-08-07T01:44:55.760Z,80.77
2015-08-07T01:45:08.166Z,80.77
2015-08-07T01:45:19.854Z,80.77
2015-08-07T01:45:32.260Z,80.77
2015-08-07T01:45:44.637Z,80.77
2015-08-07T01:45:56.996Z,80.68
2015-08-07T01:46:09.371Z,80.96
2015-08-07T01:46:21.762Z,80.58
2015-08-07T01:46:34.121Z,80.77
2015-08-07T01:46:46.514Z,80.68
2015-08-07T01:46:58.889Z,80.58
2015-08-07T01:47:11.264Z,80.68
2015-08-07T01:47:23.655Z,80.39
2015-08-07T01:47:36.030Z,80.77
2015-08-07T01:47:48.391Z,80.68
2015-08-07T01:48:00.766Z,80.68
2015-08-07T01:48:13.141Z,80.58
2015-08-07T01:48:25.516Z,80.49
2015-08-07T01:48:37.893Z,80.39
2015-08-07T01:48:50.268Z,80.87
2015-08-07T01:49:02.643Z,80.68
2015-08-07T01:49:15.034Z,80.68
2015-08-07T01:49:27.409Z,80.68
2015-08-07T01:49:39.800Z,80.49
2015-08-07T01:49:52.206Z,80.58
2015-08-07T01:50:04.613Z,80.68
2015-08-07T01:50:17.019Z,80.68
2015-08-07T01:50:29.410Z,80.68
2015-08-07T01:50:41.819Z,80.68
2015-08-07T01:50:54.241Z,80.87
2015-08-07T01:51:06.631Z,80.77
2015-08-07T01:51:19.022Z,80.49
2015-08-07T01:51:31.397Z,80.87
2015-08-07T01:51:43.774Z,80.87
2015-08-07T01:51:56.149Z,80.49
2015-08-07T01:52:08.524Z,80.58
2015-08-07T01:52:20.899Z,80.39
2015-08-07T01:52:33.274Z,80.3
2015-08-07T01:52:45.651Z,80.39
2015-08-07T01:52:58.026Z,80.39
2015-08-07T01:53:10.417Z,80.39
2015-08-07T01:53:22.792Z,80.49
2015-08-07T01:53:35.151Z,80.39
2015-08-07T01:53:47.527Z,80.3
2015-08-07T01:53:59.918Z,80.49
2015-08-07T01:54:12.293Z,80.49
2015-08-07T01:54:24.668Z,80.39
2015-08-07T01:54:37.043Z,80.39
2015-08-07T01:54:49.420Z,80.58
2015-08-07T01:55:01.826Z,80.39
2015-08-07T01:55:14.201Z,80.39
2015-08-07T01:55:26.591Z,80.49
2015-08-07T01:55:38.998Z,80.39
2015-08-07T01:55:51.390Z,80.49
2015-08-07T01:56:03.781Z,80.68
2015-08-07T01:56:16.187Z,80.49
2015-08-07T01:56:28.593Z,80.49
2015-08-07T01:56:40.984Z,81.06
2015-08-07T01:56:53.409Z,80.96
2015-08-07T01:57:05.784Z,80.96
2015-08-07T01:57:18.159Z,80.96
2015-08-07T01:57:30.534Z,80.96
2015-08-07T01:57:42.909Z,80.96
2015-08-07T01:57:55.270Z,81.06
2015-08-07T01:58:07.661Z,80.49
2015-08-07T01:58:19.880Z,80.49
2015-08-07T01:58:32.255Z,80.49
2015-08-07T01:58:44.645Z,80.58
2015-08-07T01:58:57.022Z,80.58
2015-08-07T01:59:09.382Z,80.58
2015-08-07T01:59:21.757Z,80.68
2015-08-07T01:59:34.147Z,80.49
2015-08-07T01:59:46.522Z,80.58
2015-08-07T01:59:58.898Z,80.39
2015-08-07T02:00:11.258Z,80.96
2015-08-07T02:00:23.633Z,80.3
2015-08-07T02:00:36.023Z,80.49
2015-08-07T02:00:48.398Z,80.49
2015-08-07T02:01:00.792Z,80.68
2015-08-07T02:01:13.183Z,80.96
2015-08-07T02:01:25.604Z,80.58
2015-08-07T02:01:37.995Z,80.49
2015-08-07T02:01:50.433Z,80.68
2015-08-07T02:02:02.824Z,80.49
2015-08-07T02:02:15.246Z,80.58
2015-08-07T02:02:27.637Z,80.58
2015-08-07T02:02:40.012Z,80.49
2015-08-07T02:02:52.387Z,80.49
2015-08-07T02:03:04.764Z,80.39
2015-08-07T02:03:17.139Z,80.49
2015-08-07T02:03:29.514Z,80.58
2015-08-07T02:03:41.889Z,80.39
2015-08-07T02:03:54.264Z,80.39
2015-08-07T02:04:06.641Z,80.39
2015-08-07T02:04:19.016Z,80.39
2015-08-07T02:04:31.391Z,80.58
2015-08-07T02:04:43.766Z,80.58
2015-08-07T02:04:56.141Z,80.68
2015-08-07T02:05:08.519Z,80.58
2015-08-07T02:05:20.894Z,80.58
2015-08-07T02:05:33.269Z,80.96
2015-08-07T02:05:45.644Z,80.96
2015-08-07T02:05:58.019Z,80.96
2015-08-07T02:06:10.395Z,80.96
2015-08-07T02:06:22.785Z,80.87
2015-08-07T02:06:35.160Z,80.96
2015-08-07T02:06:47.582Z,80.58
2015-08-07T02:06:59.988Z,80.68
2015-08-07T02:07:12.397Z,80.87
2015-08-07T02:07:24.787Z,80.58
2015-08-07T02:07:37.194Z,80.87
2015-08-07T02:07:49.615Z,80.87
2015-08-07T02:08:01.319Z,80.87
2015-08-07T02:08:13.680Z,80.96
2015-08-07T02:08:26.055Z,80.96
2015-08-07T02:08:38.430Z,81.06
2015-08-07T02:08:50.805Z,80.96
2015-08-07T02:09:02.477Z,80.96
2015-08-07T02:09:14.854Z,80.68
2015-08-07T02:09:27.229Z,80.68
2015-08-07T02:09:39.588Z,80.68
2015-08-07T02:09:51.963Z,80.77
2015-08-07T02:10:04.338Z,80.96
2015-08-07T02:10:16.715Z,80.87
2015-08-07T02:10:29.090Z,81.25
2015-08-07T02:10:41.465Z,81.35
2015-08-07T02:10:53.856Z,81.35
2015-08-07T02:11:06.233Z,81.35
2015-08-07T02:11:18.608Z,80.87
2015-08-07T02:11:30.967Z,81.25
2015-08-07T02:11:43.358Z,81.06
2015-08-07T02:11:55.733Z,81.06
2015-08-07T02:12:08.110Z,81.06
2015-08-07T02:12:20.500Z,81.06
2015-08-07T02:12:32.922Z,81.06
2015-08-07T02:12:50.282Z,81.06
2015-08-07T02:13:02.672Z,81.15
2015-08-07T02:13:15.081Z,81.06
2015-08-07T02:13:27.502Z,80.96
2015-08-07T02:13:40.956Z,80.96
2015-08-07T02:13:55.284Z,81.06
2015-08-07T02:14:07.971Z,81.06
2015-08-07T02:14:20.442Z,81.06
2015-08-07T02:14:32.879Z,80.96
2015-08-07T02:14:45.395Z,80.87
2015-08-07T02:14:57.801Z,80.77
2015-08-07T02:15:10.397Z,81.15
2015-08-07T02:15:23.085Z,81.25
2015-08-07T02:15:35.803Z,81.25
2015-08-07T02:15:48.522Z,81.35
2015-08-07T02:16:01.100Z,81.06
2015-08-07T02:16:13.649Z,81.54
2015-08-07T02:16:26.102Z,81.54
2015-08-07T02:16:40.102Z,81.35
2015-08-07T02:16:52.727Z,81.35
2015-08-07T02:17:05.165Z,81.35
2015-08-07T02:17:17.542Z,81.35
2015-08-07T02:17:33.370Z,81.25
2015-08-07T02:17:46.307Z,81.44
2015-08-07T02:17:58.526Z,81.35
2015-08-07T02:18:10.980Z,81.63
2015-08-07T02:18:23.808Z,81.35
2015-08-07T02:18:36.136Z,81.25
2015-08-07T02:18:48.574Z,81.44
2015-08-07T02:19:00.855Z,81.35
2015-08-07T02:19:13.685Z,81.35
2015-08-07T02:19:26.217Z,81.25
2015-08-07T02:19:38.888Z,81.35
2015-08-07T02:19:51.263Z,81.25
2015-08-07T02:20:03.638Z,81.35
2015-08-07T02:20:16.016Z,81.25
2015-08-07T02:20:28.376Z,81.63
2015-08-07T02:20:40.766Z,81.44
2015-08-07T02:20:53.141Z,81.92
2015-08-07T02:21:05.516Z,81.92
2015-08-07T02:21:17.909Z,81.73
2015-08-07T02:21:30.284Z,81.82
2015-08-07T02:21:42.690Z,81.92
2015-08-07T02:21:55.081Z,81.82
2015-08-07T02:22:07.456Z,82.2
2015-08-07T02:22:19.833Z,82.2
2015-08-07T02:22:32.208Z,82.11
2015-08-07T02:22:44.583Z,82.2
2015-08-07T02:22:56.958Z,82.11
2015-08-07T02:23:09.364Z,82.3
2015-08-07T02:23:21.741Z,81.82
2015-08-07T02:23:34.132Z,81.92
2015-08-07T02:23:46.522Z,81.82
2015-08-07T02:23:58.929Z,82.01
2015-08-07T02:24:11.335Z,81.73
2015-08-07T02:24:23.743Z,82.2
2015-08-07T02:24:36.149Z,81.73
2015-08-07T02:24:47.649Z,82.11
2015-08-07T02:25:00.071Z,82.11
2015-08-07T02:25:12.478Z,82.3
2015-08-07T02:25:24.698Z,82.49
2015-08-07T02:25:37.073Z,82.3
2015-08-07T02:25:49.448Z,81.82
2015-08-07T02:26:02.089Z,82.01
2015-08-07T02:26:14.730Z,82.01
2015-08-07T02:26:27.106Z,82.01
2015-08-07T02:26:39.481Z,82.11
2015-08-07T02:26:51.137Z,82.11
2015-08-07T02:27:03.512Z,82.11
2015-08-07T02:27:15.887Z,81.92
2015-08-07T02:27:28.264Z,82.11
2015-08-07T02:27:40.639Z,81.92
2015-08-07T02:27:53.092Z,82.2
2015-08-07T02:28:05.498Z,81.92
2015-08-07T02:28:17.873Z,82.01
2015-08-07T02:28:30.250Z,82.11
2015-08-07T02:28:42.641Z,82.01
2015-08-07T02:28:55.031Z,82.01
2015-08-07T02:29:07.406Z,82.01
2015-08-07T02:29:19.781Z,82.01
2015-08-07T02:29:32.174Z,82.01
2015-08-07T02:29:44.549Z,81.92
2015-08-07T02:29:56.940Z,82.01
2015-08-07T02:30:09.346Z,81.92
2015-08-07T02:30:21.033Z,81.92
2015-08-07T02:30:33.473Z,81.92
2015-08-07T02:30:45.895Z,81.82
2015-08-07T02:30:58.270Z,81.92
2015-08-07T02:31:10.660Z,81.92
2015-08-07T02:31:23.035Z,81.92
2015-08-07T02:31:35.412Z,82.2
2015-08-07T02:31:47.787Z,82.2
2015-08-07T02:32:00.162Z,82.11
2015-08-07T02:32:12.537Z,82.01
2015-08-07T02:32:24.912Z,82.01
2015-08-07T02:32:37.289Z,81.92
2015-08-07T02:32:49.664Z,82.11
2015-08-07T02:33:01.336Z,82.01
2015-08-07T02:33:13.711Z,82.01
2015-08-07T02:33:26.086Z,82.11
2015-08-07T02:33:38.463Z,82.11
2015-08-07T02:33:50.838Z,82.01
2015-08-07T02:34:03.213Z,82.01
2015-08-07T02:34:15.588Z,82.11
2015-08-07T02:34:27.979Z,82.01
2015-08-07T02:34:40.356Z,82.01
2015-08-07T02:34:52.731Z,82.01
2015-08-07T02:35:05.137Z,82.11
2015-08-07T02:35:17.543Z,82.4
2015-08-07T02:35:29.965Z,82.4
2015-08-07T02:35:42.358Z,82.3
2015-08-07T02:35:54.749Z,82.3
2015-08-07T02:36:07.170Z,82.3
2015-08-07T02:36:19.561Z,82.59
2015-08-07T02:36:31.952Z,82.59
2015-08-07T02:36:44.344Z,82.11
2015-08-07T02:36:56.704Z,82.4
2015-08-07T02:37:09.079Z,82.59
2015-08-07T02:37:21.469Z,82.68
2015-08-07T02:37:33.844Z,82.49
2015-08-07T02:37:46.221Z,82.59
2015-08-07T02:37:58.596Z,82.68
2015-08-07T02:38:10.971Z,82.4
2015-08-07T02:38:23.362Z,82.68
2015-08-07T02:38:35.739Z,82.59
2015-08-07T02:38:48.114Z,82.59
2015-08-07T02:39:00.489Z,82.59
2015-08-07T02:39:12.848Z,82.01
2015-08-07T02:39:25.239Z,82.59
2015-08-07T02:39:37.460Z,82.11
2015-08-07T02:39:49.835Z,82.59
2015-08-07T02:40:02.225Z,82.01